Thunder radar more information blitzortung!


Radar de pluja more information rain snow radar


Visita la nostra xarxa de llocs de meteo:

Template documentation
and downloads

And another site



No particular awareness of the weather is required.    There are no Weather-warnings

Pagina Historial Weather Underground text

Diari Resum February 1, 2018 Unitats:  Mètric    Imperial   Tant
« Previous Dia
SegĂźent Dia »
Diari Setmana Mensual Anual Personalitzada
  Maxima: Minima: Media:
Temperatura: -17.8 °C -16.1 °C -14.6 °C
Punt de rosada: -17.8 °C -18 °C -16.6 °C
Humitat: Humidity % 71 % 77 %
Wind Speed: 0 km/h 0 km/h 7.6 km/h
RĂ fegues de vent: 0 km/h - -
Vent:- - East
Pression baro: 0 hPa 34063.2 hPa -
Precipitacions: 33.02 mm    
Historical Graphs
 
 
Dades de taula per February 1, 2018
Temps Temperatura Punt de rosada Pression baro Vent Wind Speed RĂ fegues de vent Humitat Rainfall Rate (Hourly)
-17.8 °C -17.8 °C 0 hPa Calm     Humidity % 0 mm
00:01 -13.5 °C -15.9 °C 34462.7 hPa WSW 11.9 km/h 11.9 km/h 74 % 0 mm
00:05 -16.1 °C -18 °C 34256.2 hPa Calm   5.1 km/h 78 % 0 mm
00:15 -16.1 °C -17.9 °C 34256.2 hPa NNW 2.6 km/h 2.6 km/h 79 % 0 mm
00:25 -15.9 °C -17.9 °C 34222.3 hPa Calm   2.6 km/h 78 % 0 mm
00:35 -16 °C -17.9 °C 34256.2 hPa Calm     78 % 0 mm
00:45 -16 °C -17.9 °C 34256.2 hPa Calm   2.6 km/h 78 % 0 mm
00:55 -15.9 °C -17.8 °C 34256.2 hPa NNW 2.6 km/h 5.1 km/h 79 % 0 mm
01:05 -15.9 °C -17.8 °C 34256.2 hPa NNE 2.6 km/h 5.1 km/h 79 % 0 mm
01:15 -16.1 °C -18 °C 34256.2 hPa Calm   7.7 km/h 78 % 0 mm
01:25 -16 °C -17.9 °C 34222.3 hPa SW 2.6 km/h 5.1 km/h 78 % 0 mm
01:35 -16.1 °C -18 °C 34256.2 hPa WSW 2.6 km/h 2.6 km/h 78 % 0 mm
01:45 -16 °C -17.8 °C 34256.2 hPa WSW 2.6 km/h 2.6 km/h 79 % 0 mm
02:05 -16 °C -17.8 °C 34222.3 hPa Calm     79 % 0 mm
02:15 -15.8 °C -17.6 °C 34222.3 hPa NNW 2.6 km/h 5.1 km/h 79 % 0 mm
02:25 -15.9 °C -17.9 °C 34222.3 hPa West 2.6 km/h 5.1 km/h 78 % 0 mm
02:35 -15.9 °C -17.8 °C 34222.3 hPa Calm   5.1 km/h 78 % 0 mm
02:45 -15.7 °C -17.6 °C 34222.3 hPa Calm     79 % 0 mm
02:55 -15.6 °C -17.4 °C 34198.6 hPa Calm   2.6 km/h 79 % 0 mm
03:05 -15.4 °C -17.3 °C 34198.6 hPa WSW 2.6 km/h 5.1 km/h 79 % 0 mm
09:06 -15.5 °C -17.3 °C 34198.6 hPa SW 6 km/h   79 % 0 mm
09:11 -15.4 °C -17.3 °C 34198.6 hPa Calm     79 % 0 mm
09:16 -15.4 °C -17.2 °C 34198.6 hPa SW 3.1 km/h   79 % 0 mm
09:21 -15.4 °C -17.2 °C 34198.6 hPa SW 3.1 km/h   79 % 0 mm
09:26 -15.4 °C -17.2 °C 34198.6 hPa Calm     79 % 0 mm
09:32 -15.4 °C -17.2 °C 34198.6 hPa SSW 3.1 km/h   79 % 0 mm
09:37 -15.3 °C -17.2 °C 34198.6 hPa SW 4.2 km/h 4.2 km/h 79 % 0 mm
09:42 -15.3 °C -17.2 °C 34198.6 hPa Calm     79 % 0 mm
09:47 -15.3 °C -17.2 °C 34198.6 hPa SW 6 km/h 6 km/h 79 % 0 mm
09:52 -15.3 °C -17.2 °C 34198.6 hPa Calm     79 % 0 mm
09:57 -15.3 °C -17.1 °C 34198.6 hPa Calm     79 % 0 mm
10:02 -15.3 °C -17.1 °C 34198.6 hPa SW 3.1 km/h 3.7 km/h 79 % 0 mm
10:07 -15.2 °C -17.1 °C 34198.6 hPa Calm     79 % 0 mm
10:12 -15.2 °C -17 °C 34198.6 hPa Calm     79 % 0 mm
10:17 -15.1 °C -17 °C 34198.6 hPa Calm     79 % 0 mm
10:22 -15 °C -16.8 °C 34198.6 hPa Calm     79 % 0 mm
10:27 -14.9 °C -16.8 °C 34198.6 hPa NNE 6 km/h 6 km/h 79 % 0 mm
10:32 -14.9 °C -16.8 °C 34198.6 hPa WNW 4.2 km/h 4.2 km/h 79 % 0 mm
10:37 -14.8 °C -16.7 °C 34198.6 hPa NNW 6 km/h 6 km/h 78 % 0 mm
10:42 -14.7 °C -16.6 °C 34198.6 hPa SSE 6.8 km/h 6.8 km/h 78 % 0 mm
10:47 -14.6 °C -16.5 °C 34198.6 hPa NE 9 km/h 9 km/h 78 % 0 mm
10:52 -14.5 °C -16.6 °C 34198.6 hPa North 8 km/h 8 km/h 77 % 0 mm
10:57 -14.4 °C -16.5 °C 34198.6 hPa NW 6 km/h 6 km/h 77 % 0 mm
11:02 -14.4 °C -16.6 °C 34198.6 hPa NNE 6.8 km/h 6.8 km/h 76 % 0 mm
11:07 -14.4 °C -16.6 °C 34198.6 hPa WNW 6 km/h 6 km/h 76 % 0 mm
11:12 -14.5 °C -16.8 °C 34198.6 hPa NNE 15 km/h 15 km/h 75 % 0 mm
11:17 -14.5 °C -16.8 °C 34198.6 hPa NNE 7.6 km/h 9.3 km/h 75 % 0 mm
11:22 -14.5 °C -16.9 °C 34198.6 hPa NNE 15 km/h 15 km/h 74 % 0 mm
11:27 -14.4 °C -16.8 °C 34198.6 hPa NNE 11.9 km/h 11.9 km/h 74 % 0 mm
11:32 -14.4 °C -16.8 °C 34198.6 hPa NNE 15 km/h 15 km/h 74 % 0 mm
11:37 -14.4 °C -16.8 °C 34198.6 hPa NNE 17.9 km/h 17.9 km/h 74 % 0 mm
11:42 -14.4 °C -16.9 °C 34198.6 hPa NNE 15.6 km/h 15.6 km/h 73 % 0 mm
11:47 -14.4 °C -16.9 °C 34198.6 hPa NNE 19.2 km/h 19.2 km/h 73 % 0 mm
11:52 -14.4 °C -16.9 °C 34198.6 hPa NE 11.9 km/h 11.9 km/h 73 % 0 mm
11:57 -14.3 °C -16.8 °C 34198.6 hPa North 15 km/h 15 km/h 73 % 0 mm
12:02 -14.2 °C -16.7 °C 34198.6 hPa NNE 17.9 km/h 17.9 km/h 73 % 0 mm
12:07 -14.2 °C -16.7 °C 34198.6 hPa North 15 km/h 15 km/h 73 % 0 mm
12:12 -14.1 °C -16.7 °C 34198.6 hPa NNE 15 km/h 15 km/h 72 % 0 mm
12:17 -14.1 °C -16.7 °C 34164.7 hPa NNE 15 km/h 15 km/h 72 % 0 mm
12:22 -14 °C -16.6 °C 34164.7 hPa NNE 16.6 km/h 16.6 km/h 72 % 0 mm
12:27 -13.9 °C -16.6 °C 34164.7 hPa NE 20.9 km/h 20.9 km/h 72 % 0 mm
12:32 -13.9 °C -16.6 °C 34130.9 hPa ENE 15 km/h 15 km/h 71 % 0 mm
12:37 -13.8 °C -16.6 °C 34130.9 hPa NNE 8.5 km/h 8.5 km/h 71 % 0 mm
12:42 -13.8 °C -16.6 °C 34130.9 hPa NNE 15 km/h 15 km/h 71 % 0 mm
12:47 -13.8 °C -16.6 °C 34130.9 hPa ENE 17.9 km/h 17.9 km/h 71 % 0 mm
12:52 -13.8 °C -16.4 °C 34130.9 hPa ENE 6.8 km/h 6.8 km/h 72 % 0 mm
12:57 -13.8 °C -16.4 °C 34130.9 hPa NE 8 km/h 8 km/h 72 % 0 mm
13:02 -13.8 °C -16.4 °C 34130.9 hPa NNE 8 km/h 8 km/h 72 % 0 mm
13:07 -13.9 °C -16.5 °C 34130.9 hPa North 11.9 km/h 11.9 km/h 72 % 0 mm
13:12 -13.9 °C -16.4 °C 34130.9 hPa ENE 11.9 km/h 11.9 km/h 73 % 0 mm
13:17 -13.9 °C -16.3 °C 34130.9 hPa NNE 6 km/h 6 km/h 74 % 0 mm
13:22 -13.9 °C -16.3 °C 34130.9 hPa NNE 6.8 km/h 6.8 km/h 74 % 0 mm
13:27 -14 °C -16.3 °C 34130.9 hPa NNE 8 km/h 8 km/h 75 % 0 mm
13:32 -14.1 °C -16.3 °C 34130.9 hPa NNE 6 km/h 6 km/h 75 % 0 mm
13:37 -14.1 °C -16.2 °C 34130.9 hPa NNE 6 km/h 6 km/h 76 % 0 mm
13:42 -14.1 °C -16.2 °C 34130.9 hPa NW 6.8 km/h   76 % 0 mm
13:47 -14.1 °C -16.2 °C 34130.9 hPa NNE 6.3 km/h 6.3 km/h 76 % 0 mm
13:52 -14.1 °C -16.3 °C 34130.9 hPa NE 6.8 km/h 6.8 km/h 76 % 0 mm
13:57 -14.2 °C -16.3 °C 34130.9 hPa NNE 11.9 km/h 11.9 km/h 76 % 0 mm
14:02 -14.2 °C -16.2 °C 34130.9 hPa NNE 9 km/h 9 km/h 77 % 0 mm
14:07 -14.2 °C -16.2 °C 34130.9 hPa East 9 km/h 9 km/h 77 % 0 mm
14:12 -14.2 °C -16.2 °C 34130.9 hPa East 9 km/h 9 km/h 77 % 0 mm
14:17 -14.2 °C -16.2 °C 34130.9 hPa ENE 11.9 km/h 11.9 km/h 77 % 0 mm
14:22 -14.2 °C -16.2 °C 34130.9 hPa NNE 9.8 km/h 9.8 km/h 77 % 0 mm
14:27 -14.2 °C -16.2 °C 34130.9 hPa NNE 6 km/h 6 km/h 77 % 0 mm
14:32 -14.2 °C -16.2 °C 34097 hPa North 6 km/h 7.6 km/h 77 % 0 mm
14:37 -14.2 °C -16.2 °C 34097 hPa NNE 11.9 km/h 11.9 km/h 77 % 0 mm
14:42 -14.2 °C -16.2 °C 34097 hPa NNE 6.3 km/h 6.3 km/h 78 % 0 mm
14:47 -14.1 °C -16.1 °C 34097 hPa ENE 9 km/h 9 km/h 78 % 0 mm
14:52 -14.1 °C -16.1 °C 34097 hPa NNW 11.9 km/h 11.9 km/h 78 % 0 mm
14:57 -14.1 °C -16.1 °C 34097 hPa NNE 11.9 km/h 11.9 km/h 78 % 0 mm
15:02 -14.1 °C -16.1 °C 34097 hPa WNW 6 km/h 6.8 km/h 78 % 0 mm
15:07 -14.1 °C -16.1 °C 34097 hPa ENE 6.3 km/h 6.3 km/h 78 % 0 mm
15:12 -14.1 °C -16.1 °C 34097 hPa NE 6.3 km/h 6.3 km/h 78 % 0 mm
15:17 -14.1 °C -16.1 °C 34097 hPa North 9 km/h 9 km/h 78 % 0 mm
15:22 -14.1 °C -16.1 °C 34097 hPa ESE 6 km/h 6 km/h 78 % 0 mm
15:27 -14.1 °C -16.1 °C 34097 hPa NNE 6 km/h 6 km/h 78 % 0 mm
15:32 -14 °C -16 °C 34097 hPa NNE 6 km/h 6 km/h 78 % 0 mm
15:37 -14 °C -16.1 °C 34097 hPa NNE 6 km/h 6 km/h 77 % 0 mm
15:42 -13.9 °C -16 °C 34097 hPa NNW 7.6 km/h 7.6 km/h 77 % 0 mm
15:47 -14 °C -16.1 °C 34097 hPa North 6 km/h 6 km/h 77 % 0 mm
15:52 -13.9 °C -16 °C 34097 hPa NE 9 km/h 9 km/h 77 % 0 mm
15:57 -13.9 °C -16 °C 34097 hPa North 3.1 km/h 3.1 km/h 77 % 0 mm
16:02 -14 °C -16.1 °C 34097 hPa NNE 6.3 km/h 6.3 km/h 77 % 0 mm
16:07 -14 °C -16.1 °C 34097 hPa NE 6 km/h 6 km/h 77 % 0 mm
16:12 -14.1 °C -16.2 °C 34097 hPa NE 11.9 km/h 11.9 km/h 77 % 0 mm
16:17 -14.1 °C -16.2 °C 34063.2 hPa North 6.3 km/h 6.3 km/h 77 % 0 mm
16:22 -14.1 °C -16.2 °C 34063.2 hPa NNE 3.1 km/h   77 % 0 mm
16:27 -14.1 °C -16.2 °C 34063.2 hPa ENE 3.1 km/h 3.1 km/h 77 % 0 mm
16:32 -14.1 °C -16.2 °C 34063.2 hPa WNW 6 km/h   77 % 0 mm
16:37 -14.1 °C -16.2 °C 34063.2 hPa WNW 3.1 km/h 4.2 km/h 77 % 0 mm
16:42 -14.1 °C -16.2 °C 34063.2 hPa ENE 6 km/h 6 km/h 77 % 0 mm
16:47 -14.1 °C -16.2 °C 34097 hPa NNE 6 km/h 6 km/h 77 % 0 mm
16:52 -14.1 °C -16.2 °C 34097 hPa NW 3.1 km/h   77 % 0 mm
16:57 -14.1 °C -16.2 °C 34097 hPa NNE 6 km/h 6 km/h 77 % 0 mm
17:02 -14.1 °C -16.2 °C 34097 hPa NNE 6 km/h   77 % 0 mm
17:07 -14.1 °C -16.2 °C 34097 hPa NNE 3.1 km/h   77 % 0 mm
17:12 -14.1 °C -16.2 °C 34097 hPa NW 3.7 km/h   77 % 0 mm
17:17 -14 °C -16.1 °C 34097 hPa NW 3.7 km/h 3.7 km/h 77 % 0 mm
17:22 -14.1 °C -16.1 °C 34097 hPa Calm     78 % 0 mm
17:27 -14 °C -16 °C 34097 hPa Calm     78 % 0 mm
17:32 -14.1 °C -16.1 °C 34063.2 hPa WNW 3.1 km/h   78 % 0 mm
17:37 -14.1 °C -16.1 °C 34063.2 hPa Calm     78 % 0 mm
17:42 -14.1 °C -16.1 °C 34063.2 hPa Calm     78 % 0 mm
17:47 -14.1 °C -16.1 °C 34063.2 hPa WNW 3.1 km/h   78 % 0 mm
17:52 -14.1 °C -16.1 °C 34063.2 hPa Calm     78 % 0 mm
17:57 -14.1 °C -16.1 °C 34063.2 hPa WNW 3.1 km/h   78 % 0 mm
18:02 -14.1 °C -16.1 °C 34063.2 hPa Calm     78 % 0 mm
18:07 -14 °C -16 °C 34063.2 hPa Calm     78 % 0 mm
18:12 -14.1 °C -16.1 °C 34063.2 hPa Calm     78 % 0 mm
18:17 -14.1 °C -16.1 °C 34097 hPa East 6.3 km/h 6.3 km/h 78 % 0 mm
18:19 -14.1 °C -16.1 °C 34097 hPa ESE 6 km/h 6 km/h 78 % 0 mm
18:24 -14.1 °C -16.1 °C 34097 hPa East 6 km/h 6 km/h 78 % 0 mm
18:29 -14.1 °C -16.1 °C 34063.2 hPa ESE 3.1 km/h 3.1 km/h 78 % 0 mm
18:34 -14.1 °C -16.1 °C 34063.2 hPa Calm     78 % 0 mm
18:39 -14 °C -16 °C 34063.2 hPa ENE 6 km/h 6 km/h 78 % 0 mm
18:44 -14.1 °C -16.1 °C 34097 hPa NE 6.8 km/h 6.8 km/h 78 % 0 mm
18:49 -14.1 °C -16.1 °C 34097 hPa ENE 6.3 km/h 6.8 km/h 78 % 0 mm
18:54 -14.1 °C -16.1 °C 34097 hPa ESE 11.9 km/h 11.9 km/h 78 % 0 mm
18:59 -14.2 °C -16.2 °C 34063.2 hPa ESE 15 km/h 15.3 km/h 78 % 0 mm
19:04 -14.3 °C -16.3 °C 34063.2 hPa ENE 15 km/h 15 km/h 78 % 0 mm
19:09 -14.3 °C -16.3 °C 34063.2 hPa ENE 11.9 km/h 11.9 km/h 78 % 0 mm
19:14 -14.3 °C -16.3 °C 34063.2 hPa ESE 9 km/h 9 km/h 78 % 0 mm
19:19 -14.4 °C -16.3 °C 34063.2 hPa ENE 9 km/h 9 km/h 79 % 0 mm
19:24 -14.4 °C -16.3 °C 34063.2 hPa ENE 6 km/h 6 km/h 79 % 0 mm
19:29 -14.4 °C -16.3 °C 34097 hPa ESE 9 km/h 9 km/h 79 % 0 mm
19:34 -14.4 °C -16.3 °C 34097 hPa ESE 12.2 km/h 12.2 km/h 79 % 0 mm
19:39 -14.4 °C -16.3 °C 34097 hPa ESE 17.9 km/h 17.9 km/h 79 % 0 mm
19:44 -14.4 °C -16.3 °C 34097 hPa ESE 11.9 km/h 11.9 km/h 79 % 0 mm
19:49 -14.4 °C -16.3 °C 34097 hPa East 15 km/h 15 km/h 79 % 0 mm
19:54 -14.5 °C -16.5 °C 34097 hPa NNE 26.9 km/h 26.9 km/h 78 % 0 mm
19:59 -14.6 °C -16.4 °C 34063.2 hPa ESE 15 km/h 15 km/h 79 % 0 mm
20:04 -14.6 °C -16.4 °C 34063.2 hPa ESE 11.9 km/h 11.9 km/h 79 % 0 mm
20:09 -14.6 °C -16.5 °C 34063.2 hPa ENE 11.9 km/h 11.9 km/h 79 % 0 mm
20:14 -14.6 °C -16.5 °C 34097 hPa ENE 14 km/h 14 km/h 79 % 0 mm
20:19 -14.6 °C -16.5 °C 34097 hPa NE 14.5 km/h 14.5 km/h 79 % 0 mm
20:24 -14.6 °C -16.5 °C 34097 hPa ENE 11.9 km/h 11.9 km/h 79 % 0 mm
20:29 -14.6 °C -16.5 °C 34097 hPa NE 9 km/h 9 km/h 79 % 0 mm
20:34 -14.7 °C -16.6 °C 34097 hPa NNE 17.9 km/h 17.9 km/h 79 % 0 mm
20:39 -14.7 °C -16.6 °C 34097 hPa NNE 15 km/h 15 km/h 79 % 0 mm
20:44 -14.7 °C -16.6 °C 34097 hPa NNE 15 km/h 15 km/h 79 % 0 mm
20:49 -14.7 °C -16.6 °C 34097 hPa NNE 11.9 km/h 11.9 km/h 79 % 0 mm
20:54 -14.7 °C -16.6 °C 34097 hPa NNE 11.9 km/h 11.9 km/h 79 % 0 mm
20:59 -14.7 °C -16.6 °C 34097 hPa NNE 11.1 km/h 11.1 km/h 79 % 0 mm
21:04 -14.7 °C -16.6 °C 34097 hPa NNW 3.1 km/h   79 % 0 mm
21:09 -14.7 °C -16.6 °C 34097 hPa ENE 6 km/h 6 km/h 79 % 0 mm
21:14 -14.7 °C -16.6 °C 34097 hPa ENE 17.9 km/h 17.9 km/h 79 % 0 mm
21:19 -14.7 °C -16.6 °C 34097 hPa ENE 15 km/h 15 km/h 79 % 0 mm
21:24 -14.7 °C -16.7 °C 34097 hPa ENE 11.9 km/h 11.9 km/h 78 % 0 mm
21:29 -14.7 °C -16.6 °C 34097 hPa NNE 9 km/h 9 km/h 78 % 0 mm
21:34 -14.7 °C -16.6 °C 34097 hPa East 9 km/h 9 km/h 78 % 0 mm
21:39 -14.7 °C -16.6 °C 34097 hPa East 8 km/h 8 km/h 78 % 0 mm
21:44 -14.7 °C -16.7 °C 34097 hPa ENE 11.9 km/h 11.9 km/h 78 % 0 mm
21:49 -14.7 °C -16.7 °C 34097 hPa NNE 11.9 km/h 11.9 km/h 78 % 0 mm
21:54 -14.7 °C -16.7 °C 34097 hPa ENE 17.9 km/h 17.9 km/h 78 % 0 mm
21:59 -14.7 °C -16.7 °C 34097 hPa ENE 15 km/h 15 km/h 78 % 0 mm
22:04 -14.7 °C -16.7 °C 34097 hPa ENE 6 km/h 6 km/h 78 % 0 mm
22:09 -14.7 °C -16.7 °C 34097 hPa NNE 6 km/h 6 km/h 78 % 0 mm
22:14 -14.7 °C -16.7 °C 34097 hPa NNE 11.9 km/h 11.9 km/h 78 % 0 mm
22:19 -14.7 °C -16.7 °C 34097 hPa NNE 9 km/h 9 km/h 78 % 0 mm
22:24 -14.7 °C -16.7 °C 34097 hPa NNE 9 km/h 9 km/h 78 % 0 mm
22:29 -14.8 °C -16.7 °C 34097 hPa East 11.9 km/h 11.9 km/h 78 % 0 mm
22:34 -14.8 °C -16.7 °C 34097 hPa NNE 9 km/h 9 km/h 78 % 0 mm
22:39 -14.7 °C -16.7 °C 34097 hPa NNE 9 km/h 9 km/h 78 % 0 mm
22:44 -14.7 °C -16.7 °C 34097 hPa NNE 9 km/h 9 km/h 78 % 0 mm
22:49 -14.7 °C -16.7 °C 34097 hPa NNE 11.9 km/h 11.9 km/h 78 % 0 mm
22:54 -14.7 °C -16.7 °C 34097 hPa ENE 9 km/h 9 km/h 78 % 0 mm
22:59 -14.7 °C -16.7 °C 34130.9 hPa NNE 6 km/h 6 km/h 78 % 0 mm
23:04 -14.7 °C -16.7 °C 34130.9 hPa NNE 3.7 km/h 3.7 km/h 78 % 0 mm
23:09 -14.7 °C -16.7 °C 34130.9 hPa NNE 6 km/h 6 km/h 78 % 0 mm
23:14 -14.7 °C -16.7 °C 34097 hPa NNE 6 km/h 6 km/h 78 % 0 mm
23:19 -14.7 °C -16.7 °C 34097 hPa NNE 6 km/h 6 km/h 78 % 0 mm
23:24 -14.7 °C -16.8 °C 34097 hPa NNE 3.7 km/h 4.2 km/h 77 % 0 mm
23:29 -14.7 °C -16.7 °C 34130.9 hPa NNE 9 km/h 9 km/h 78 % 0 mm
23:34 -14.7 °C -16.7 °C 34130.9 hPa ENE 3.1 km/h 3.1 km/h 78 % 0 mm
23:39 -14.7 °C -16.7 °C 34130.9 hPa ENE 6 km/h 6 km/h 78 % 0 mm
23:44 -14.8 °C -16.8 °C 34130.9 hPa ENE 6.8 km/h 6.8 km/h 78 % 0 mm
23:49 -14.9 °C -16.8 °C 34130.9 hPa ENE 3.1 km/h 3.1 km/h 78 % 0 mm
23:54 -14.9 °C -16.8 °C 34130.9 hPa Calm     78 % 0 mm
23:59 -14.9 °C -16.9 °C 34130.9 hPa ENE 6 km/h 6 km/h 78 % 33.02 mm
Meteo Sesrovires
Elogis d' Weather Underground - 2 mb

Guio original per  Jim McMurry - jmcmurry@mwt.net Adaptat per a la plantilla per  Wim van der Kuil - Leuven-Template.eu

Trobareu la nostra informacio del temps tambe a:

Weather Underground

AWEKAS